sensor_id;sensor_type;location;lat;lon;timestamp;P1;durP1;ratioP1;P2;durP2;ratioP2
31966;SDS011;18496;52.042;6.812;2024-01-25T00:01:43;47.40;;;8.02;;
31966;SDS011;18496;52.042;6.812;2024-01-25T00:03:46;33.60;;;6.63;;
31966;SDS011;18496;52.042;6.812;2024-01-25T00:05:50;44.45;;;6.75;;
31966;SDS011;18496;52.042;6.812;2024-01-25T00:07:54;35.28;;;6.95;;
31966;SDS011;18496;52.042;6.812;2024-01-25T00:09:57;42.15;;;8.50;;
31966;SDS011;18496;52.042;6.812;2024-01-25T00:12:01;42.28;;;7.00;;
31966;SDS011;18496;52.042;6.812;2024-01-25T00:14:05;35.75;;;6.78;;
31966;SDS011;18496;52.042;6.812;2024-01-25T00:16:08;34.53;;;7.03;;
31966;SDS011;18496;52.042;6.812;2024-01-25T00:18:12;36.63;;;6.13;;
31966;SDS011;18496;52.042;6.812;2024-01-25T00:20:16;38.08;;;6.40;;
31966;SDS011;18496;52.042;6.812;2024-01-25T00:22:19;52.40;;;7.40;;
31966;SDS011;18496;52.042;6.812;2024-01-25T00:24:23;44.53;;;7.20;;
31966;SDS011;18496;52.042;6.812;2024-01-25T00:26:29;42.97;;;7.03;;
31966;SDS011;18496;52.042;6.812;2024-01-25T00:28:32;40.63;;;6.97;;
31966;SDS011;18496;52.042;6.812;2024-01-25T00:30:36;34.88;;;7.80;;
31966;SDS011;18496;52.042;6.812;2024-01-25T00:32:40;41.78;;;6.30;;
31966;SDS011;18496;52.042;6.812;2024-01-25T00:34:44;46.08;;;8.15;;
31966;SDS011;18496;52.042;6.812;2024-01-25T00:36:48;29.98;;;7.47;;
31966;SDS011;18496;52.042;6.812;2024-01-25T00:38:52;44.53;;;7.32;;
31966;SDS011;18496;52.042;6.812;2024-01-25T00:40:56;45.28;;;6.97;;
31966;SDS011;18496;52.042;6.812;2024-01-25T00:43:00;42.20;;;7.07;;
31966;SDS011;18496;52.042;6.812;2024-01-25T00:45:04;36.72;;;6.00;;
31966;SDS011;18496;52.042;6.812;2024-01-25T00:47:09;44.17;;;7.05;;
31966;SDS011;18496;52.042;6.812;2024-01-25T00:49:13;46.33;;;7.32;;
31966;SDS011;18496;52.042;6.812;2024-01-25T00:51:20;33.70;;;6.38;;
31966;SDS011;18496;52.042;6.812;2024-01-25T00:53:26;49.38;;;6.80;;
31966;SDS011;18496;52.042;6.812;2024-01-25T00:55:30;35.80;;;7.38;;
31966;SDS011;18496;52.042;6.812;2024-01-25T00:57:34;39.25;;;7.05;;
31966;SDS011;18496;52.042;6.812;2024-01-25T00:59:38;33.38;;;7.22;;
31966;SDS011;18496;52.042;6.812;2024-01-25T01:01:41;42.05;;;7.22;;
31966;SDS011;18496;52.042;6.812;2024-01-25T01:03:49;37.40;;;7.47;;
31966;SDS011;18496;52.042;6.812;2024-01-25T01:05:55;36.40;;;7.68;;
31966;SDS011;18496;52.042;6.812;2024-01-25T01:08:01;38.17;;;6.72;;
31966;SDS011;18496;52.042;6.812;2024-01-25T01:10:05;45.47;;;6.63;;
31966;SDS011;18496;52.042;6.812;2024-01-25T01:12:09;33.10;;;6.07;;
31966;SDS011;18496;52.042;6.812;2024-01-25T01:14:12;37.63;;;7.47;;
31966;SDS011;18496;52.042;6.812;2024-01-25T01:16:16;41.03;;;6.85;;
31966;SDS011;18496;52.042;6.812;2024-01-25T01:18:20;47.88;;;7.78;;
31966;SDS011;18496;52.042;6.812;2024-01-25T01:20:23;38.00;;;6.13;;
31966;SDS011;18496;52.042;6.812;2024-01-25T01:22:27;42.38;;;6.90;;
31966;SDS011;18496;52.042;6.812;2024-01-25T01:24:31;35.33;;;6.57;;
31966;SDS011;18496;52.042;6.812;2024-01-25T01:26:35;34.22;;;6.43;;
31966;SDS011;18496;52.042;6.812;2024-01-25T01:28:38;45.60;;;9.15;;
31966;SDS011;18496;52.042;6.812;2024-01-25T01:30:42;36.50;;;7.05;;
31966;SDS011;18496;52.042;6.812;2024-01-25T01:32:46;35.47;;;6.57;;
31966;SDS011;18496;52.042;6.812;2024-01-25T01:34:49;44.17;;;7.10;;
31966;SDS011;18496;52.042;6.812;2024-01-25T01:36:53;47.00;;;6.30;;
31966;SDS011;18496;52.042;6.812;2024-01-25T01:38:57;32.60;;;7.22;;
31966;SDS011;18496;52.042;6.812;2024-01-25T01:41:00;35.03;;;6.78;;
31966;SDS011;18496;52.042;6.812;2024-01-25T01:43:05;42.22;;;7.88;;
31966;SDS011;18496;52.042;6.812;2024-01-25T01:45:10;33.80;;;7.35;;
31966;SDS011;18496;52.042;6.812;2024-01-25T01:47:15;29.38;;;7.05;;
31966;SDS011;18496;52.042;6.812;2024-01-25T01:49:20;49.80;;;7.50;;
31966;SDS011;18496;52.042;6.812;2024-01-25T01:51:24;40.30;;;7.15;;
31966;SDS011;18496;52.042;6.812;2024-01-25T01:53:28;36.55;;;6.68;;
31966;SDS011;18496;52.042;6.812;2024-01-25T01:55:32;30.92;;;6.20;;
31966;SDS011;18496;52.042;6.812;2024-01-25T01:57:36;34.80;;;6.22;;
31966;SDS011;18496;52.042;6.812;2024-01-25T01:59:40;39.13;;;7.20;;
31966;SDS011;18496;52.042;6.812;2024-01-25T02:01:44;43.50;;;6.45;;
31966;SDS011;18496;52.042;6.812;2024-01-25T02:03:48;51.35;;;7.20;;
31966;SDS011;18496;52.042;6.812;2024-01-25T02:05:52;39.08;;;5.78;;
31966;SDS011;18496;52.042;6.812;2024-01-25T02:07:55;44.72;;;7.25;;
31966;SDS011;18496;52.042;6.812;2024-01-25T02:10:00;36.13;;;6.78;;
31966;SDS011;18496;52.042;6.812;2024-01-25T02:12:04;30.40;;;6.20;;
31966;SDS011;18496;52.042;6.812;2024-01-25T02:14:08;34.97;;;6.38;;
31966;SDS011;18496;52.042;6.812;2024-01-25T02:16:14;42.30;;;6.90;;
31966;SDS011;18496;52.042;6.812;2024-01-25T02:18:19;32.22;;;6.00;;
31966;SDS011;18496;52.042;6.812;2024-01-25T02:20:22;41.05;;;6.90;;
31966;SDS011;18496;52.042;6.812;2024-01-25T02:22:26;42.35;;;6.97;;
31966;SDS011;18496;52.042;6.812;2024-01-25T02:24:30;36.00;;;7.05;;
31966;SDS011;18496;52.042;6.812;2024-01-25T02:26:34;38.47;;;7.07;;
31966;SDS011;18496;52.042;6.812;2024-01-25T02:28:38;36.55;;;6.65;;
31966;SDS011;18496;52.042;6.812;2024-01-25T02:30:42;38.35;;;6.20;;
31966;SDS011;18496;52.042;6.812;2024-01-25T02:32:46;34.80;;;6.72;;
31966;SDS011;18496;52.042;6.812;2024-01-25T02:34:49;42.03;;;6.70;;
31966;SDS011;18496;52.042;6.812;2024-01-25T02:36:53;44.45;;;7.57;;
31966;SDS011;18496;52.042;6.812;2024-01-25T02:38:57;38.75;;;7.15;;
31966;SDS011;18496;52.042;6.812;2024-01-25T02:41:01;43.53;;;7.60;;
31966;SDS011;18496;52.042;6.812;2024-01-25T02:43:04;39.85;;;7.68;;
31966;SDS011;18496;52.042;6.812;2024-01-25T02:45:08;44.05;;;6.85;;
31966;SDS011;18496;52.042;6.812;2024-01-25T02:47:12;47.40;;;8.15;;
31966;SDS011;18496;52.042;6.812;2024-01-25T02:49:18;45.10;;;7.30;;
31966;SDS011;18496;52.042;6.812;2024-01-25T02:51:22;35.90;;;6.85;;
31966;SDS011;18496;52.042;6.812;2024-01-25T02:53:25;37.65;;;7.25;;
31966;SDS011;18496;52.042;6.812;2024-01-25T02:55:29;43.22;;;6.93;;
31966;SDS011;18496;52.042;6.812;2024-01-25T02:57:33;34.60;;;7.35;;
31966;SDS011;18496;52.042;6.812;2024-01-25T02:59:37;41.92;;;7.68;;
31966;SDS011;18496;52.042;6.812;2024-01-25T03:01:40;41.00;;;7.38;;
31966;SDS011;18496;52.042;6.812;2024-01-25T03:03:45;54.53;;;7.13;;
31966;SDS011;18496;52.042;6.812;2024-01-25T03:05:48;36.30;;;6.82;;
31966;SDS011;18496;52.042;6.812;2024-01-25T03:07:52;32.33;;;6.80;;
31966;SDS011;18496;52.042;6.812;2024-01-25T03:09:56;43.10;;;8.07;;
31966;SDS011;18496;52.042;6.812;2024-01-25T03:12:00;32.22;;;6.10;;
31966;SDS011;18496;52.042;6.812;2024-01-25T03:14:03;39.08;;;5.72;;
31966;SDS011;18496;52.042;6.812;2024-01-25T03:16:07;33.90;;;7.35;;
31966;SDS011;18496;52.042;6.812;2024-01-25T03:18:11;41.47;;;6.15;;
31966;SDS011;18496;52.042;6.812;2024-01-25T03:20:14;34.33;;;7.40;;
31966;SDS011;18496;52.042;6.812;2024-01-25T03:22:18;31.17;;;5.65;;
31966;SDS011;18496;52.042;6.812;2024-01-25T03:24:22;36.58;;;7.38;;
31966;SDS011;18496;52.042;6.812;2024-01-25T03:26:29;40.30;;;6.65;;
31966;SDS011;18496;52.042;6.812;2024-01-25T03:28:35;30.50;;;6.70;;
31966;SDS011;18496;52.042;6.812;2024-01-25T03:30:40;35.70;;;6.18;;
31966;SDS011;18496;52.042;6.812;2024-01-25T03:32:45;33.53;;;7.03;;
31966;SDS011;18496;52.042;6.812;2024-01-25T03:34:49;31.45;;;6.00;;
31966;SDS011;18496;52.042;6.812;2024-01-25T03:36:53;38.33;;;6.97;;
31966;SDS011;18496;52.042;6.812;2024-01-25T03:38:57;41.75;;;7.20;;
31966;SDS011;18496;52.042;6.812;2024-01-25T03:41:01;29.88;;;6.50;;
31966;SDS011;18496;52.042;6.812;2024-01-25T03:43:05;45.95;;;6.88;;
31966;SDS011;18496;52.042;6.812;2024-01-25T03:45:08;47.20;;;6.88;;
31966;SDS011;18496;52.042;6.812;2024-01-25T03:47:12;28.65;;;5.32;;
31966;SDS011;18496;52.042;6.812;2024-01-25T03:49:16;31.33;;;5.55;;
31966;SDS011;18496;52.042;6.812;2024-01-25T03:51:20;37.95;;;6.97;;
31966;SDS011;18496;52.042;6.812;2024-01-25T03:53:24;35.67;;;5.80;;
31966;SDS011;18496;52.042;6.812;2024-01-25T03:55:27;35.83;;;6.50;;
31966;SDS011;18496;52.042;6.812;2024-01-25T03:57:31;35.33;;;6.10;;
31966;SDS011;18496;52.042;6.812;2024-01-25T03:59:35;36.55;;;5.85;;
31966;SDS011;18496;52.042;6.812;2024-01-25T04:01:42;38.58;;;6.22;;
31966;SDS011;18496;52.042;6.812;2024-01-25T04:05:53;33.78;;;5.97;;
31966;SDS011;18496;52.042;6.812;2024-01-25T04:07:57;32.97;;;6.28;;
31966;SDS011;18496;52.042;6.812;2024-01-25T04:10:01;38.40;;;7.60;;
31966;SDS011;18496;52.042;6.812;2024-01-25T04:12:05;31.65;;;5.72;;
31966;SDS011;18496;52.042;6.812;2024-01-25T04:14:09;34.53;;;5.93;;
31966;SDS011;18496;52.042;6.812;2024-01-25T04:16:16;46.72;;;5.88;;
31966;SDS011;18496;52.042;6.812;2024-01-25T04:18:19;35.95;;;6.53;;
31966;SDS011;18496;52.042;6.812;2024-01-25T04:20:23;39.67;;;6.00;;
31966;SDS011;18496;52.042;6.812;2024-01-25T04:22:27;40.40;;;6.43;;
31966;SDS011;18496;52.042;6.812;2024-01-25T04:24:30;47.05;;;8.02;;
31966;SDS011;18496;52.042;6.812;2024-01-25T04:26:34;36.58;;;6.88;;
31966;SDS011;18496;52.042;6.812;2024-01-25T04:28:38;27.80;;;6.13;;
31966;SDS011;18496;52.042;6.812;2024-01-25T04:30:41;34.08;;;6.07;;
31966;SDS011;18496;52.042;6.812;2024-01-25T04:32:45;41.63;;;6.45;;
31966;SDS011;18496;52.042;6.812;2024-01-25T04:34:49;30.75;;;6.55;;
31966;SDS011;18496;52.042;6.812;2024-01-25T04:36:53;45.00;;;7.13;;
31966;SDS011;18496;52.042;6.812;2024-01-25T04:38:57;27.85;;;5.68;;
31966;SDS011;18496;52.042;6.812;2024-01-25T04:41:00;38.17;;;7.22;;
31966;SDS011;18496;52.042;6.812;2024-01-25T04:43:04;27.38;;;6.20;;
31966;SDS011;18496;52.042;6.812;2024-01-25T04:45:08;41.35;;;6.28;;
31966;SDS011;18496;52.042;6.812;2024-01-25T04:47:12;35.60;;;6.22;;
31966;SDS011;18496;52.042;6.812;2024-01-25T04:49:15;31.98;;;6.90;;
31966;SDS011;18496;52.042;6.812;2024-01-25T04:51:19;38.08;;;6.00;;
31966;SDS011;18496;52.042;6.812;2024-01-25T04:53:23;48.83;;;7.15;;
31966;SDS011;18496;52.042;6.812;2024-01-25T04:55:27;34.67;;;6.13;;
31966;SDS011;18496;52.042;6.812;2024-01-25T04:57:30;33.60;;;6.20;;
31966;SDS011;18496;52.042;6.812;2024-01-25T04:59:34;30.75;;;5.60;;
31966;SDS011;18496;52.042;6.812;2024-01-25T05:01:38;43.70;;;6.65;;
31966;SDS011;18496;52.042;6.812;2024-01-25T05:03:42;57.35;;;7.20;;
31966;SDS011;18496;52.042;6.812;2024-01-25T05:05:46;34.75;;;6.80;;
31966;SDS011;18496;52.042;6.812;2024-01-25T05:07:49;42.50;;;6.40;;
31966;SDS011;18496;52.042;6.812;2024-01-25T05:09:53;40.97;;;6.75;;
31966;SDS011;18496;52.042;6.812;2024-01-25T05:11:57;33.15;;;6.35;;
31966;SDS011;18496;52.042;6.812;2024-01-25T05:14:03;39.95;;;6.07;;
31966;SDS011;18496;52.042;6.812;2024-01-25T05:16:06;32.55;;;6.03;;
31966;SDS011;18496;52.042;6.812;2024-01-25T05:18:10;44.80;;;6.72;;
31966;SDS011;18496;52.042;6.812;2024-01-25T05:20:14;34.30;;;6.95;;
31966;SDS011;18496;52.042;6.812;2024-01-25T05:22:20;38.40;;;6.88;;
31966;SDS011;18496;52.042;6.812;2024-01-25T05:24:25;45.50;;;7.10;;
31966;SDS011;18496;52.042;6.812;2024-01-25T05:26:28;55.05;;;7.13;;
31966;SDS011;18496;52.042;6.812;2024-01-25T05:28:32;39.72;;;6.05;;
31966;SDS011;18496;52.042;6.812;2024-01-25T05:30:36;39.55;;;6.18;;
31966;SDS011;18496;52.042;6.812;2024-01-25T05:32:39;36.53;;;6.43;;
31966;SDS011;18496;52.042;6.812;2024-01-25T05:34:43;23.35;;;6.50;;
31966;SDS011;18496;52.042;6.812;2024-01-25T05:36:47;36.45;;;6.90;;
31966;SDS011;18496;52.042;6.812;2024-01-25T05:38:50;31.80;;;6.80;;
31966;SDS011;18496;52.042;6.812;2024-01-25T05:40:54;38.00;;;6.65;;
31966;SDS011;18496;52.042;6.812;2024-01-25T05:42:58;41.35;;;6.20;;
31966;SDS011;18496;52.042;6.812;2024-01-25T05:45:03;41.63;;;5.95;;
31966;SDS011;18496;52.042;6.812;2024-01-25T05:47:06;43.00;;;6.93;;
31966;SDS011;18496;52.042;6.812;2024-01-25T05:49:10;32.65;;;5.28;;
31966;SDS011;18496;52.042;6.812;2024-01-25T05:51:14;42.72;;;7.65;;
31966;SDS011;18496;52.042;6.812;2024-01-25T05:53:18;40.17;;;7.13;;
31966;SDS011;18496;52.042;6.812;2024-01-25T05:55:23;29.10;;;5.35;;
31966;SDS011;18496;52.042;6.812;2024-01-25T05:57:26;51.67;;;7.68;;
31966;SDS011;18496;52.042;6.812;2024-01-25T05:59:31;30.05;;;6.70;;
31966;SDS011;18496;52.042;6.812;2024-01-25T06:01:34;49.75;;;6.65;;
31966;SDS011;18496;52.042;6.812;2024-01-25T06:03:38;36.00;;;6.22;;
31966;SDS011;18496;52.042;6.812;2024-01-25T06:05:42;42.90;;;6.78;;
31966;SDS011;18496;52.042;6.812;2024-01-25T06:07:45;38.80;;;6.63;;
31966;SDS011;18496;52.042;6.812;2024-01-25T06:09:49;42.00;;;6.68;;
31966;SDS011;18496;52.042;6.812;2024-01-25T06:11:53;39.03;;;7.00;;
31966;SDS011;18496;52.042;6.812;2024-01-25T06:13:57;31.13;;;6.18;;
31966;SDS011;18496;52.042;6.812;2024-01-25T06:16:01;52.50;;;8.70;;
31966;SDS011;18496;52.042;6.812;2024-01-25T06:18:05;35.35;;;6.00;;
31966;SDS011;18496;52.042;6.812;2024-01-25T06:20:08;38.53;;;6.38;;
31966;SDS011;18496;52.042;6.812;2024-01-25T06:22:13;35.75;;;5.93;;
31966;SDS011;18496;52.042;6.812;2024-01-25T06:24:17;41.33;;;6.72;;
31966;SDS011;18496;52.042;6.812;2024-01-25T06:26:21;35.50;;;6.47;;
31966;SDS011;18496;52.042;6.812;2024-01-25T06:28:25;33.65;;;6.60;;
31966;SDS011;18496;52.042;6.812;2024-01-25T06:30:29;37.10;;;6.60;;
31966;SDS011;18496;52.042;6.812;2024-01-25T06:32:32;32.58;;;6.25;;
31966;SDS011;18496;52.042;6.812;2024-01-25T06:34:36;36.78;;;7.00;;
31966;SDS011;18496;52.042;6.812;2024-01-25T06:36:40;43.33;;;8.15;;
31966;SDS011;18496;52.042;6.812;2024-01-25T06:38:43;40.15;;;7.28;;
31966;SDS011;18496;52.042;6.812;2024-01-25T06:40:47;33.72;;;6.43;;
31966;SDS011;18496;52.042;6.812;2024-01-25T06:42:51;32.60;;;6.05;;
31966;SDS011;18496;52.042;6.812;2024-01-25T06:44:54;40.60;;;6.93;;
31966;SDS011;18496;52.042;6.812;2024-01-25T06:46:58;37.10;;;7.20;;
31966;SDS011;18496;52.042;6.812;2024-01-25T06:49:02;29.73;;;5.28;;
31966;SDS011;18496;52.042;6.812;2024-01-25T06:51:06;34.50;;;6.45;;
31966;SDS011;18496;52.042;6.812;2024-01-25T06:53:09;32.92;;;6.35;;
31966;SDS011;18496;52.042;6.812;2024-01-25T06:55:13;37.85;;;6.28;;
31966;SDS011;18496;52.042;6.812;2024-01-25T06:57:17;42.65;;;7.35;;
31966;SDS011;18496;52.042;6.812;2024-01-25T06:59:20;35.60;;;7.95;;
31966;SDS011;18496;52.042;6.812;2024-01-25T07:01:24;41.67;;;6.82;;
31966;SDS011;18496;52.042;6.812;2024-01-25T07:03:28;44.58;;;7.15;;
31966;SDS011;18496;52.042;6.812;2024-01-25T07:05:32;60.00;;;16.63;;
31966;SDS011;18496;52.042;6.812;2024-01-25T07:07:38;55.10;;;14.30;;
31966;SDS011;18496;52.042;6.812;2024-01-25T07:09:42;71.47;;;16.98;;
31966;SDS011;18496;52.042;6.812;2024-01-25T07:11:46;54.70;;;16.67;;
31966;SDS011;18496;52.042;6.812;2024-01-25T07:13:50;82.05;;;25.05;;
31966;SDS011;18496;52.042;6.812;2024-01-25T07:15:54;81.90;;;19.83;;
31966;SDS011;18496;52.042;6.812;2024-01-25T07:17:58;53.80;;;14.63;;
31966;SDS011;18496;52.042;6.812;2024-01-25T07:20:01;48.78;;;12.38;;
31966;SDS011;18496;52.042;6.812;2024-01-25T07:22:05;52.42;;;11.98;;
31966;SDS011;18496;52.042;6.812;2024-01-25T07:24:10;50.00;;;13.18;;
31966;SDS011;18496;52.042;6.812;2024-01-25T07:26:19;41.15;;;10.30;;
31966;SDS011;18496;52.042;6.812;2024-01-25T07:28:24;39.10;;;9.40;;
31966;SDS011;18496;52.042;6.812;2024-01-25T07:30:28;40.97;;;7.88;;
31966;SDS011;18496;52.042;6.812;2024-01-25T07:32:32;54.97;;;7.60;;
31966;SDS011;18496;52.042;6.812;2024-01-25T07:34:37;40.67;;;8.48;;
31966;SDS011;18496;52.042;6.812;2024-01-25T07:36:41;40.35;;;7.20;;
31966;SDS011;18496;52.042;6.812;2024-01-25T07:38:45;51.05;;;7.13;;
31966;SDS011;18496;52.042;6.812;2024-01-25T07:40:51;50.53;;;7.85;;
31966;SDS011;18496;52.042;6.812;2024-01-25T07:42:55;43.15;;;6.95;;
31966;SDS011;18496;52.042;6.812;2024-01-25T07:44:59;39.75;;;7.13;;
31966;SDS011;18496;52.042;6.812;2024-01-25T07:47:03;41.38;;;7.13;;
31966;SDS011;18496;52.042;6.812;2024-01-25T07:49:06;39.83;;;7.15;;
31966;SDS011;18496;52.042;6.812;2024-01-25T07:51:10;34.13;;;7.15;;
31966;SDS011;18496;52.042;6.812;2024-01-25T07:53:16;33.85;;;6.55;;
31966;SDS011;18496;52.042;6.812;2024-01-25T07:55:20;33.75;;;7.63;;
31966;SDS011;18496;52.042;6.812;2024-01-25T07:57:24;39.40;;;8.02;;
31966;SDS011;18496;52.042;6.812;2024-01-25T07:59:28;25.90;;;6.80;;
31966;SDS011;18496;52.042;6.812;2024-01-25T08:01:31;37.22;;;6.57;;
31966;SDS011;18496;52.042;6.812;2024-01-25T08:03:35;46.85;;;7.50;;
31966;SDS011;18496;52.042;6.812;2024-01-25T08:05:39;42.53;;;6.55;;
31966;SDS011;18496;52.042;6.812;2024-01-25T08:07:44;45.22;;;7.20;;
31966;SDS011;18496;52.042;6.812;2024-01-25T08:09:48;36.50;;;6.53;;
31966;SDS011;18496;52.042;6.812;2024-01-25T08:11:55;37.67;;;7.32;;
31966;SDS011;18496;52.042;6.812;2024-01-25T08:13:58;40.97;;;7.28;;
31966;SDS011;18496;52.042;6.812;2024-01-25T08:16:02;48.35;;;7.63;;
31966;SDS011;18496;52.042;6.812;2024-01-25T08:18:06;33.90;;;7.53;;
31966;SDS011;18496;52.042;6.812;2024-01-25T08:20:10;47.17;;;9.05;;
31966;SDS011;18496;52.042;6.812;2024-01-25T08:22:16;47.08;;;6.95;;
31966;SDS011;18496;52.042;6.812;2024-01-25T08:24:20;50.10;;;7.93;;
31966;SDS011;18496;52.042;6.812;2024-01-25T08:26:24;37.97;;;8.10;;
31966;SDS011;18496;52.042;6.812;2024-01-25T08:28:28;44.65;;;6.55;;
31966;SDS011;18496;52.042;6.812;2024-01-25T08:30:32;43.60;;;7.95;;
31966;SDS011;18496;52.042;6.812;2024-01-25T08:32:36;39.53;;;6.95;;
31966;SDS011;18496;52.042;6.812;2024-01-25T08:34:39;32.75;;;7.25;;
31966;SDS011;18496;52.042;6.812;2024-01-25T08:36:43;47.38;;;7.68;;
31966;SDS011;18496;52.042;6.812;2024-01-25T08:38:47;37.90;;;7.10;;
31966;SDS011;18496;52.042;6.812;2024-01-25T08:40:50;42.20;;;7.25;;
31966;SDS011;18496;52.042;6.812;2024-01-25T08:42:54;27.33;;;7.15;;
31966;SDS011;18496;52.042;6.812;2024-01-25T08:44:58;52.65;;;8.35;;
31966;SDS011;18496;52.042;6.812;2024-01-25T08:47:01;29.92;;;7.65;;
31966;SDS011;18496;52.042;6.812;2024-01-25T08:49:05;41.35;;;7.88;;
31966;SDS011;18496;52.042;6.812;2024-01-25T08:51:11;39.58;;;6.82;;
31966;SDS011;18496;52.042;6.812;2024-01-25T08:53:15;48.58;;;8.38;;
31966;SDS011;18496;52.042;6.812;2024-01-25T08:55:19;40.80;;;8.65;;
31966;SDS011;18496;52.042;6.812;2024-01-25T08:57:23;43.47;;;8.07;;
31966;SDS011;18496;52.042;6.812;2024-01-25T08:59:26;40.50;;;7.78;;
31966;SDS011;18496;52.042;6.812;2024-01-25T09:01:32;46.92;;;7.93;;
31966;SDS011;18496;52.042;6.812;2024-01-25T09:03:36;43.15;;;7.40;;
31966;SDS011;18496;52.042;6.812;2024-01-25T09:05:40;44.88;;;9.35;;
31966;SDS011;18496;52.042;6.812;2024-01-25T09:07:48;44.97;;;8.45;;
31966;SDS011;18496;52.042;6.812;2024-01-25T09:09:53;45.88;;;7.82;;
31966;SDS011;18496;52.042;6.812;2024-01-25T09:11:57;48.60;;;7.63;;
31966;SDS011;18496;52.042;6.812;2024-01-25T09:14:01;45.55;;;8.05;;
31966;SDS011;18496;52.042;6.812;2024-01-25T09:16:04;44.22;;;8.23;;
31966;SDS011;18496;52.042;6.812;2024-01-25T09:18:08;49.08;;;10.43;;
31966;SDS011;18496;52.042;6.812;2024-01-25T09:20:12;41.90;;;8.27;;
31966;SDS011;18496;52.042;6.812;2024-01-25T09:22:19;42.67;;;8.38;;
31966;SDS011;18496;52.042;6.812;2024-01-25T09:24:23;38.05;;;8.00;;
31966;SDS011;18496;52.042;6.812;2024-01-25T09:26:27;40.90;;;9.48;;
31966;SDS011;18496;52.042;6.812;2024-01-25T09:28:30;38.40;;;8.02;;
31966;SDS011;18496;52.042;6.812;2024-01-25T09:30:34;40.70;;;7.20;;
31966;SDS011;18496;52.042;6.812;2024-01-25T09:32:38;43.85;;;8.45;;
31966;SDS011;18496;52.042;6.812;2024-01-25T09:34:41;45.78;;;9.07;;
31966;SDS011;18496;52.042;6.812;2024-01-25T09:36:45;56.72;;;9.20;;
31966;SDS011;18496;52.042;6.812;2024-01-25T09:38:49;45.08;;;8.57;;
31966;SDS011;18496;52.042;6.812;2024-01-25T09:40:52;50.25;;;8.63;;
31966;SDS011;18496;52.042;6.812;2024-01-25T09:42:56;47.22;;;8.63;;
31966;SDS011;18496;52.042;6.812;2024-01-25T09:45:00;42.00;;;9.18;;
31966;SDS011;18496;52.042;6.812;2024-01-25T09:47:04;38.63;;;8.55;;
31966;SDS011;18496;52.042;6.812;2024-01-25T09:49:10;43.33;;;9.48;;
31966;SDS011;18496;52.042;6.812;2024-01-25T09:51:14;49.33;;;10.13;;
31966;SDS011;18496;52.042;6.812;2024-01-25T09:53:20;43.50;;;8.80;;
31966;SDS011;18496;52.042;6.812;2024-01-25T09:55:25;51.25;;;9.30;;
31966;SDS011;18496;52.042;6.812;2024-01-25T09:57:29;46.88;;;8.15;;
31966;SDS011;18496;52.042;6.812;2024-01-25T09:59:34;48.85;;;8.88;;
31966;SDS011;18496;52.042;6.812;2024-01-25T10:01:38;48.10;;;9.73;;
31966;SDS011;18496;52.042;6.812;2024-01-25T10:03:42;47.10;;;8.88;;
31966;SDS011;18496;52.042;6.812;2024-01-25T10:05:49;36.88;;;7.97;;
31966;SDS011;18496;52.042;6.812;2024-01-25T10:07:53;46.42;;;9.50;;
31966;SDS011;18496;52.042;6.812;2024-01-25T10:09:56;54.90;;;10.45;;
31966;SDS011;18496;52.042;6.812;2024-01-25T10:12:00;38.28;;;7.85;;
31966;SDS011;18496;52.042;6.812;2024-01-25T10:14:04;42.03;;;9.60;;
31966;SDS011;18496;52.042;6.812;2024-01-25T10:16:10;44.40;;;10.38;;
31966;SDS011;18496;52.042;6.812;2024-01-25T10:18:17;38.63;;;10.32;;
31966;SDS011;18496;52.042;6.812;2024-01-25T10:20:21;37.85;;;9.27;;
31966;SDS011;18496;52.042;6.812;2024-01-25T10:22:27;57.60;;;10.20;;
31966;SDS011;18496;52.042;6.812;2024-01-25T10:24:31;60.92;;;11.35;;
31966;SDS011;18496;52.042;6.812;2024-01-25T10:26:36;50.63;;;10.50;;
31966;SDS011;18496;52.042;6.812;2024-01-25T10:28:40;32.60;;;8.20;;
31966;SDS011;18496;52.042;6.812;2024-01-25T10:30:45;42.42;;;9.18;;
31966;SDS011;18496;52.042;6.812;2024-01-25T10:32:50;52.30;;;10.25;;
31966;SDS011;18496;52.042;6.812;2024-01-25T10:34:56;40.42;;;9.23;;
31966;SDS011;18496;52.042;6.812;2024-01-25T10:37:00;52.67;;;9.68;;
31966;SDS011;18496;52.042;6.812;2024-01-25T10:39:08;42.78;;;10.27;;
31966;SDS011;18496;52.042;6.812;2024-01-25T10:41:12;49.85;;;10.73;;
31966;SDS011;18496;52.042;6.812;2024-01-25T10:43:17;33.53;;;9.02;;
31966;SDS011;18496;52.042;6.812;2024-01-25T10:45:20;58.58;;;9.25;;
31966;SDS011;18496;52.042;6.812;2024-01-25T10:47:24;48.28;;;10.00;;
31966;SDS011;18496;52.042;6.812;2024-01-25T10:49:30;47.90;;;9.50;;
31966;SDS011;18496;52.042;6.812;2024-01-25T10:51:35;43.63;;;9.57;;
31966;SDS011;18496;52.042;6.812;2024-01-25T10:53:39;56.20;;;10.02;;
31966;SDS011;18496;52.042;6.812;2024-01-25T10:55:43;43.35;;;9.43;;
31966;SDS011;18496;52.042;6.812;2024-01-25T10:57:47;47.60;;;10.40;;
31966;SDS011;18496;52.042;6.812;2024-01-25T10:59:51;40.38;;;8.43;;
31966;SDS011;18496;52.042;6.812;2024-01-25T11:01:58;43.78;;;9.15;;
31966;SDS011;18496;52.042;6.812;2024-01-25T11:04:17;43.80;;;9.55;;
31966;SDS011;18496;52.042;6.812;2024-01-25T11:06:22;41.70;;;8.15;;
31966;SDS011;18496;52.042;6.812;2024-01-25T11:08:26;49.40;;;10.88;;
31966;SDS011;18496;52.042;6.812;2024-01-25T11:10:34;54.47;;;9.57;;
31966;SDS011;18496;52.042;6.812;2024-01-25T11:12:58;40.85;;;9.68;;
31966;SDS011;18496;52.042;6.812;2024-01-25T11:15:06;56.97;;;9.63;;
31966;SDS011;18496;52.042;6.812;2024-01-25T11:17:14;37.60;;;9.68;;
31966;SDS011;18496;52.042;6.812;2024-01-25T11:19:25;40.65;;;9.15;;
31966;SDS011;18496;52.042;6.812;2024-01-25T11:21:29;53.63;;;9.60;;
31966;SDS011;18496;52.042;6.812;2024-01-25T11:23:42;46.00;;;10.40;;
31966;SDS011;18496;52.042;6.812;2024-01-25T11:25:46;47.20;;;10.02;;
31966;SDS011;18496;52.042;6.812;2024-01-25T11:27:51;43.78;;;10.35;;
31966;SDS011;18496;52.042;6.812;2024-01-25T11:29:55;49.15;;;9.93;;
31966;SDS011;18496;52.042;6.812;2024-01-25T11:31:59;45.00;;;9.07;;
31966;SDS011;18496;52.042;6.812;2024-01-25T11:34:03;46.50;;;10.27;;
31966;SDS011;18496;52.042;6.812;2024-01-25T11:36:06;46.35;;;9.65;;
31966;SDS011;18496;52.042;6.812;2024-01-25T11:38:10;40.67;;;9.57;;
31966;SDS011;18496;52.042;6.812;2024-01-25T11:40:17;42.70;;;9.65;;
31966;SDS011;18496;52.042;6.812;2024-01-25T11:42:21;47.42;;;10.07;;
31966;SDS011;18496;52.042;6.812;2024-01-25T11:44:25;49.45;;;10.30;;
31966;SDS011;18496;52.042;6.812;2024-01-25T11:46:29;49.03;;;11.38;;
31966;SDS011;18496;52.042;6.812;2024-01-25T11:48:34;43.67;;;10.98;;
31966;SDS011;18496;52.042;6.812;2024-01-25T11:50:42;60.58;;;13.82;;
31966;SDS011;18496;52.042;6.812;2024-01-25T11:52:47;41.50;;;11.65;;
31966;SDS011;18496;52.042;6.812;2024-01-25T11:54:51;43.05;;;10.75;;
31966;SDS011;18496;52.042;6.812;2024-01-25T11:56:54;51.45;;;12.02;;
31966;SDS011;18496;52.042;6.812;2024-01-25T11:58:58;50.30;;;11.68;;
31966;SDS011;18496;52.042;6.812;2024-01-25T12:01:03;50.67;;;11.85;;
31966;SDS011;18496;52.042;6.812;2024-01-25T12:03:10;55.85;;;11.40;;
31966;SDS011;18496;52.042;6.812;2024-01-25T12:05:14;53.90;;;11.65;;
31966;SDS011;18496;52.042;6.812;2024-01-25T12:07:18;53.10;;;12.13;;
31966;SDS011;18496;52.042;6.812;2024-01-25T12:09:22;49.80;;;11.10;;
31966;SDS011;18496;52.042;6.812;2024-01-25T12:11:26;39.17;;;11.38;;
31966;SDS011;18496;52.042;6.812;2024-01-25T12:13:49;54.50;;;11.00;;
31966;SDS011;18496;52.042;6.812;2024-01-25T12:15:52;46.85;;;11.60;;
31966;SDS011;18496;52.042;6.812;2024-01-25T12:17:58;40.28;;;11.32;;
31966;SDS011;18496;52.042;6.812;2024-01-25T12:20:02;36.20;;;10.23;;